sensor_id;sensor_type;location;lat;lon;timestamp;pressure;altitude;pressure_sealevel;temperature;humidity
78932;BME280;68331;53.362;55.932;2023-10-08T00:02:10;98424.06;;;7.83;79.28
78932;BME280;68331;53.362;55.932;2023-10-08T00:04:36;98420.53;;;7.84;79.17
78932;BME280;68331;53.362;55.932;2023-10-08T00:07:05;98420.53;;;7.84;79.40
78932;BME280;68331;53.362;55.932;2023-10-08T00:09:35;98412.63;;;7.84;78.88
78932;BME280;68331;53.362;55.932;2023-10-08T00:12:03;98405.81;;;7.80;78.95
78932;BME280;68331;53.362;55.932;2023-10-08T00:14:30;98395.47;;;7.77;78.82
78932;BME280;68331;53.362;55.932;2023-10-08T00:16:57;98395.47;;;7.77;78.97
78932;BME280;68331;53.362;55.932;2023-10-08T00:19:23;98394.66;;;7.75;79.08
78932;BME280;68331;53.362;55.932;2023-10-08T00:21:50;98381.66;;;7.72;78.79
78932;BME280;68331;53.362;55.932;2023-10-08T00:24:19;98392.97;;;7.74;78.74
78932;BME280;68331;53.362;55.932;2023-10-08T00:26:53;98398.03;;;7.79;78.50
78932;BME280;68331;53.362;55.932;2023-10-08T00:29:20;98394.63;;;7.77;78.35
78932;BME280;68331;53.362;55.932;2023-10-08T00:31:50;98393.09;;;7.71;78.43
78932;BME280;68331;53.362;55.932;2023-10-08T00:34:17;98387.25;;;7.64;78.39
78932;BME280;68331;53.362;55.932;2023-10-08T00:36:47;98389.31;;;7.58;78.61
78932;BME280;68331;53.362;55.932;2023-10-08T00:39:17;98380.84;;;7.51;79.02
78932;BME280;68331;53.362;55.932;2023-10-08T00:41:51;98374.88;;;7.48;79.23
78932;BME280;68331;53.362;55.932;2023-10-08T00:44:24;98374.09;;;7.45;79.10
78932;BME280;68331;53.362;55.932;2023-10-08T00:46:59;98369.09;;;7.39;79.36
78932;BME280;68331;53.362;55.932;2023-10-08T00:49:30;98364.91;;;7.35;79.34
78932;BME280;68331;53.362;55.932;2023-10-08T00:52:11;98362.41;;;7.32;79.43
78932;BME280;68331;53.362;55.932;2023-10-08T00:54:38;98366.00;;;7.30;79.37
78932;BME280;68331;53.362;55.932;2023-10-08T00:57:30;98366.94;;;7.29;79.33
78932;BME280;68331;53.362;55.932;2023-10-08T01:00:00;98358.34;;;7.25;79.22
78932;BME280;68331;53.362;55.932;2023-10-08T01:02:28;98355.78;;;7.23;79.63
78932;BME280;68331;53.362;55.932;2023-10-08T01:04:56;98355.78;;;7.23;79.56
78932;BME280;68331;53.362;55.932;2023-10-08T01:07:23;98354.75;;;7.28;79.30
78932;BME280;68331;53.362;55.932;2023-10-08T01:09:50;98345.88;;;7.30;79.38
78932;BME280;68331;53.362;55.932;2023-10-08T01:12:22;98340.63;;;7.30;79.20
78932;BME280;68331;53.362;55.932;2023-10-08T01:14:54;98340.72;;;7.29;79.21
78932;BME280;68331;53.362;55.932;2023-10-08T01:17:22;98332.16;;;7.23;79.01
78932;BME280;68331;53.362;55.932;2023-10-08T01:19:53;98338.22;;;7.26;79.07
78932;BME280;68331;53.362;55.932;2023-10-08T01:22:30;98330.34;;;7.26;79.01
78932;BME280;68331;53.362;55.932;2023-10-08T01:24:57;98337.41;;;7.23;78.81
78932;BME280;68331;53.362;55.932;2023-10-08T01:27:31;98328.06;;;7.18;78.95
78932;BME280;68331;53.362;55.932;2023-10-08T01:30:01;98342.31;;;7.11;78.35
78932;BME280;68331;53.362;55.932;2023-10-08T01:32:44;98338.94;;;7.09;78.45
78932;BME280;68331;53.362;55.932;2023-10-08T01:35:11;98341.84;;;7.01;78.07
78932;BME280;68331;53.362;55.932;2023-10-08T01:37:50;98328.88;;;6.98;77.87
78932;BME280;68331;53.362;55.932;2023-10-08T01:40:17;98333.34;;;6.96;77.67
78932;BME280;68331;53.362;55.932;2023-10-08T01:42:45;98331.94;;;6.87;77.86
78932;BME280;68331;53.362;55.932;2023-10-08T01:45:12;98327.69;;;6.85;78.11
78932;BME280;68331;53.362;55.932;2023-10-08T01:47:41;98332.13;;;6.83;77.85
78932;BME280;68331;53.362;55.932;2023-10-08T01:50:09;98328.84;;;6.78;77.64
78932;BME280;68331;53.362;55.932;2023-10-08T01:52:48;98327.09;;;6.78;77.66
78932;BME280;68331;53.362;55.932;2023-10-08T01:55:14;98321.03;;;6.76;77.78
78932;BME280;68331;53.362;55.932;2023-10-08T01:57:46;98326.47;;;6.71;77.42
78932;BME280;68331;53.362;55.932;2023-10-08T02:00:12;98315.06;;;6.72;77.34
78932;BME280;68331;53.362;55.932;2023-10-08T02:02:40;98319.41;;;6.73;77.30
78932;BME280;68331;53.362;55.932;2023-10-08T02:05:07;98315.94;;;6.73;76.67
78932;BME280;68331;53.362;55.932;2023-10-08T02:07:33;98309.84;;;6.72;76.63
78932;BME280;68331;53.362;55.932;2023-10-08T02:09:59;98312.66;;;6.68;76.15
78932;BME280;68331;53.362;55.932;2023-10-08T02:12:25;98305.78;;;6.65;76.23
78932;BME280;68331;53.362;55.932;2023-10-08T02:14:51;98300.59;;;6.64;75.68
78932;BME280;68331;53.362;55.932;2023-10-08T02:17:18;98302.59;;;6.57;75.91
78932;BME280;68331;53.362;55.932;2023-10-08T02:19:45;98297.56;;;6.52;75.94
78932;BME280;68331;53.362;55.932;2023-10-08T02:22:12;98306.38;;;6.50;76.02
78932;BME280;68331;53.362;55.932;2023-10-08T02:24:39;98299.50;;;6.47;76.22
78932;BME280;68331;53.362;55.932;2023-10-08T02:27:06;98301.38;;;6.44;75.89
78932;BME280;68331;53.362;55.932;2023-10-08T02:29:33;98300.53;;;6.43;76.28
78932;BME280;68331;53.362;55.932;2023-10-08T02:31:59;98303.34;;;6.39;76.28
78932;BME280;68331;53.362;55.932;2023-10-08T02:34:25;98305.16;;;6.37;76.24
78932;BME280;68331;53.362;55.932;2023-10-08T02:36:52;98306.09;;;6.36;76.50
78932;BME280;68331;53.362;55.932;2023-10-08T02:39:18;98295.72;;;6.33;76.50
78932;BME280;68331;53.362;55.932;2023-10-08T02:41:48;98289.81;;;6.27;76.48
78932;BME280;68331;53.362;55.932;2023-10-08T02:44:17;98294.13;;;6.28;76.44
78932;BME280;68331;53.362;55.932;2023-10-08T02:46:44;98291.66;;;6.25;76.70
78932;BME280;68331;53.362;55.932;2023-10-08T02:49:18;98283.66;;;6.28;76.28
78932;BME280;68331;53.362;55.932;2023-10-08T02:51:50;98274.78;;;6.33;76.36
78932;BME280;68331;53.362;55.932;2023-10-08T02:54:17;98269.53;;;6.33;76.70
78932;BME280;68331;53.362;55.932;2023-10-08T02:56:49;98264.19;;;6.36;76.53
78932;BME280;68331;53.362;55.932;2023-10-08T02:59:18;98256.25;;;6.37;76.34
78932;BME280;68331;53.362;55.932;2023-10-08T03:01:48;98256.31;;;6.36;76.16
78932;BME280;68331;53.362;55.932;2023-10-08T03:04:22;98245.84;;;6.36;75.84
78932;BME280;68331;53.362;55.932;2023-10-08T03:06:49;98261.50;;;6.37;75.88
78932;BME280;68331;53.362;55.932;2023-10-08T03:09:18;98271.69;;;6.45;75.45
78932;BME280;68331;53.362;55.932;2023-10-08T03:11:50;98261.38;;;6.40;75.22
78932;BME280;68331;53.362;55.932;2023-10-08T03:14:18;98260.63;;;6.37;75.33
78932;BME280;68331;53.362;55.932;2023-10-08T03:16:54;98253.75;;;6.34;75.42
78932;BME280;68331;53.362;55.932;2023-10-08T03:19:33;98263.47;;;6.32;75.68
78932;BME280;68331;53.362;55.932;2023-10-08T03:22:01;98258.34;;;6.29;76.25
78932;BME280;68331;53.362;55.932;2023-10-08T03:24:30;98245.53;;;6.21;76.55
78932;BME280;68331;53.362;55.932;2023-10-08T03:27:04;98248.09;;;6.23;77.02
78932;BME280;68331;53.362;55.932;2023-10-08T03:29:39;98242.03;;;6.22;77.50
78932;BME280;68331;53.362;55.932;2023-10-08T03:32:11;98238.72;;;6.17;77.76
78932;BME280;68331;53.362;55.932;2023-10-08T03:34:49;98239.66;;;6.16;78.38
78932;BME280;68331;53.362;55.932;2023-10-08T03:37:21;98238.16;;;6.09;78.60
78932;BME280;68331;53.362;55.932;2023-10-08T03:39:55;98237.88;;;5.95;79.21
78932;BME280;68331;53.362;55.932;2023-10-08T03:42:40;98239.34;;;5.78;79.63
78932;BME280;68331;53.362;55.932;2023-10-08T03:45:07;98244.91;;;5.69;79.49
78932;BME280;68331;53.362;55.932;2023-10-08T03:47:38;98232.91;;;5.64;79.59
78932;BME280;68331;53.362;55.932;2023-10-08T03:50:07;98221.78;;;5.58;79.85
78932;BME280;68331;53.362;55.932;2023-10-08T03:52:36;98219.28;;;5.55;79.92
78932;BME280;68331;53.362;55.932;2023-10-08T03:55:05;98210.56;;;5.55;79.66
78932;BME280;68331;53.362;55.932;2023-10-08T03:57:44;98203.63;;;5.54;79.31
78932;BME280;68331;53.362;55.932;2023-10-08T04:00:14;98202.72;;;5.55;79.47
78932;BME280;68331;53.362;55.932;2023-10-08T04:02:58;98189.53;;;5.58;79.23
78932;BME280;68331;53.362;55.932;2023-10-08T04:05:38;98190.44;;;5.57;78.98
78932;BME280;68331;53.362;55.932;2023-10-08T04:08:36;98178.44;;;5.51;79.11
78932;BME280;68331;53.362;55.932;2023-10-08T04:11:11;98175.72;;;5.54;79.05
78932;BME280;68331;53.362;55.932;2023-10-08T04:13:57;98180.09;;;5.54;79.14
78932;BME280;68331;53.362;55.932;2023-10-08T04:16:26;98173.81;;;5.58;79.26
78932;BME280;68331;53.362;55.932;2023-10-08T04:18:56;98157.00;;;5.65;79.36
78932;BME280;68331;53.362;55.932;2023-10-08T04:21:23;98139.81;;;5.58;79.26
78932;BME280;68331;53.362;55.932;2023-10-08T04:23:53;98145.00;;;5.59;79.32
78932;BME280;68331;53.362;55.932;2023-10-08T04:26:23;98142.69;;;5.52;79.19
78932;BME280;68331;53.362;55.932;2023-10-08T04:28:54;98130.88;;;5.42;79.50
78932;BME280;68331;53.362;55.932;2023-10-08T04:31:24;98125.88;;;5.35;79.96
78932;BME280;68331;53.362;55.932;2023-10-08T04:34:03;98125.22;;;5.30;80.10
78932;BME280;68331;53.362;55.932;2023-10-08T04:36:36;98116.53;;;5.30;80.34
78932;BME280;68331;53.362;55.932;2023-10-08T04:39:04;98102.56;;;5.29;80.54
78932;BME280;68331;53.362;55.932;2023-10-08T04:41:40;98118.25;;;5.29;80.60
78932;BME280;68331;53.362;55.932;2023-10-08T04:44:10;98098.56;;;5.21;80.94
78932;BME280;68331;53.362;55.932;2023-10-08T04:46:49;98087.19;;;5.22;80.87
78932;BME280;68331;53.362;55.932;2023-10-08T04:49:19;98095.97;;;5.21;81.16
78932;BME280;68331;53.362;55.932;2023-10-08T04:51:59;98087.38;;;5.17;81.16
78932;BME280;68331;53.362;55.932;2023-10-08T04:54:26;98066.41;;;5.19;81.32
78932;BME280;68331;53.362;55.932;2023-10-08T04:56:59;98066.09;;;5.26;81.18
78932;BME280;68331;53.362;55.932;2023-10-08T04:59:29;98066.28;;;5.22;81.35
78932;BME280;68331;53.362;55.932;2023-10-08T05:02:08;98046.69;;;5.10;81.76
78932;BME280;68331;53.362;55.932;2023-10-08T05:04:40;98061.25;;;5.17;82.03
78932;BME280;68331;53.362;55.932;2023-10-08T05:07:23;98049.78;;;5.20;81.98
78932;BME280;68331;53.362;55.932;2023-10-08T05:09:53;98040.16;;;5.22;81.72
78932;BME280;68331;53.362;55.932;2023-10-08T05:12:19;98036.00;;;5.16;81.58
78932;BME280;68331;53.362;55.932;2023-10-08T05:15:14;98031.81;;;5.12;81.70
78932;BME280;68331;53.362;55.932;2023-10-08T05:17:41;98017.22;;;5.06;82.13
78932;BME280;68331;53.362;55.932;2023-10-08T05:20:21;98002.25;;;5.10;81.91
78932;BME280;68331;53.362;55.932;2023-10-08T05:23:18;98019.66;;;5.11;81.97
78932;BME280;68331;53.362;55.932;2023-10-08T05:25:44;98012.84;;;5.07;82.28
78932;BME280;68331;53.362;55.932;2023-10-08T05:28:30;98019.06;;;5.04;82.22
78932;BME280;68331;53.362;55.932;2023-10-08T05:30:56;98003.53;;;5.00;82.53
78932;BME280;68331;53.362;55.932;2023-10-08T05:33:57;97980.94;;;4.99;82.86
78932;BME280;68331;53.362;55.932;2023-10-08T05:36:44;97999.97;;;5.02;82.87
78932;BME280;68331;53.362;55.932;2023-10-08T05:39:17;97978.19;;;5.02;83.00
78932;BME280;68331;53.362;55.932;2023-10-08T05:42:02;97966.91;;;5.01;82.79
78932;BME280;68331;53.362;55.932;2023-10-08T05:44:46;97959.97;;;5.00;82.95
78932;BME280;68331;53.362;55.932;2023-10-08T05:47:32;97950.47;;;4.98;83.39
78932;BME280;68331;53.362;55.932;2023-10-08T05:49:59;97964.16;;;5.04;83.41
78932;BME280;68331;53.362;55.932;2023-10-08T05:52:46;97914.56;;;5.03;83.17
78932;BME280;68331;53.362;55.932;2023-10-08T05:55:33;97924.41;;;5.18;83.13
78932;BME280;68331;53.362;55.932;2023-10-08T05:58:05;97914.78;;;5.19;83.05
78932;BME280;68331;53.362;55.932;2023-10-08T06:01:02;97912.50;;;5.31;82.88
78932;BME280;68331;53.362;55.932;2023-10-08T06:03:34;97926.00;;;5.43;82.72
78932;BME280;68331;53.362;55.932;2023-10-08T06:06:10;97907.81;;;5.40;82.59
78932;BME280;68331;53.362;55.932;2023-10-08T06:08:39;97885.41;;;5.34;82.66
78932;BME280;68331;53.362;55.932;2023-10-08T06:11:18;97875.13;;;5.50;82.47
78932;BME280;68331;53.362;55.932;2023-10-08T06:14:11;97887.38;;;5.49;82.53
78932;BME280;68331;53.362;55.932;2023-10-08T06:17:04;97866.88;;;5.39;82.80
78932;BME280;68331;53.362;55.932;2023-10-08T06:19:50;97849.50;;;5.38;83.07
78932;BME280;68331;53.362;55.932;2023-10-08T06:22:19;97834.66;;;5.38;83.20
78932;BME280;68331;53.362;55.932;2023-10-08T06:24:49;97844.06;;;5.42;83.60
78932;BME280;68331;53.362;55.932;2023-10-08T06:27:15;97836.75;;;5.50;83.46
78932;BME280;68331;53.362;55.932;2023-10-08T06:29:43;97806.50;;;5.64;83.35
78932;BME280;68331;53.362;55.932;2023-10-08T06:32:10;97807.78;;;5.74;83.03
78932;BME280;68331;53.362;55.932;2023-10-08T06:34:37;97797.63;;;5.87;82.90
78932;BME280;68331;53.362;55.932;2023-10-08T06:37:06;97797.00;;;5.81;82.57
78932;BME280;68331;53.362;55.932;2023-10-08T06:39:34;97791.81;;;5.80;82.69
78932;BME280;68331;53.362;55.932;2023-10-08T06:42:14;97788.22;;;5.82;82.89
78932;BME280;68331;53.362;55.932;2023-10-08T06:44:41;97791.06;;;5.78;82.82
78932;BME280;68331;53.362;55.932;2023-10-08T06:47:12;97796.16;;;5.81;83.26
78932;BME280;68331;53.362;55.932;2023-10-08T06:49:43;97796.78;;;5.86;83.26
78932;BME280;68331;53.362;55.932;2023-10-08T06:52:12;97788.78;;;5.89;83.19
78932;BME280;68331;53.362;55.932;2023-10-08T06:54:39;97774.94;;;5.87;83.35
78932;BME280;68331;53.362;55.932;2023-10-08T06:57:05;97764.25;;;5.92;83.08
78932;BME280;68331;53.362;55.932;2023-10-08T06:59:39;97764.06;;;5.96;83.15
78932;BME280;68331;53.362;55.932;2023-10-08T07:02:08;97750.06;;;5.97;83.24
78932;BME280;68331;53.362;55.932;2023-10-08T07:04:36;97748.28;;;5.98;83.47
78932;BME280;68331;53.362;55.932;2023-10-08T07:07:01;97741.84;;;6.05;83.51
78932;BME280;68331;53.362;55.932;2023-10-08T07:09:28;97749.34;;;6.13;83.65
78932;BME280;68331;53.362;55.932;2023-10-08T07:11:56;97745.81;;;6.14;83.47
78932;BME280;68331;53.362;55.932;2023-10-08T07:14:25;97738.88;;;6.13;83.71
78932;BME280;68331;53.362;55.932;2023-10-08T07:16:55;97740.72;;;6.11;83.78
78932;BME280;68331;53.362;55.932;2023-10-08T07:19:25;97740.00;;;6.07;83.76
78932;BME280;68331;53.362;55.932;2023-10-08T07:22:01;97746.22;;;6.04;84.05
78932;BME280;68331;53.362;55.932;2023-10-08T07:24:48;97715.94;;;5.99;84.27
78932;BME280;68331;53.362;55.932;2023-10-08T07:27:18;97720.44;;;5.97;84.44
78932;BME280;68331;53.362;55.932;2023-10-08T07:29:48;97725.81;;;5.94;84.60
78932;BME280;68331;53.362;55.932;2023-10-08T07:32:14;97707.34;;;5.97;85.20
78932;BME280;68331;53.362;55.932;2023-10-08T07:34:45;97725.66;;;5.97;85.00
78932;BME280;68331;53.362;55.932;2023-10-08T07:37:11;97714.31;;;5.96;85.21
78932;BME280;68331;53.362;55.932;2023-10-08T07:39:40;97713.47;;;5.96;85.14
78932;BME280;68331;53.362;55.932;2023-10-08T07:42:17;97700.25;;;5.99;85.24
78932;BME280;68331;53.362;55.932;2023-10-08T07:44:43;97704.50;;;6.01;85.16
78932;BME280;68331;53.362;55.932;2023-10-08T07:47:09;97688.88;;;6.00;85.25
78932;BME280;68331;53.362;55.932;2023-10-08T07:49:40;97689.63;;;6.02;85.70
78932;BME280;68331;53.362;55.932;2023-10-08T07:52:09;97674.56;;;6.07;85.74
78932;BME280;68331;53.362;55.932;2023-10-08T07:54:35;97686.72;;;6.08;85.78
78932;BME280;68331;53.362;55.932;2023-10-08T07:57:02;97674.34;;;6.12;85.83
78932;BME280;68331;53.362;55.932;2023-10-08T07:59:52;97683.91;;;6.13;85.83
78932;BME280;68331;53.362;55.932;2023-10-08T08:02:20;97668.88;;;6.16;85.75
78932;BME280;68331;53.362;55.932;2023-10-08T08:04:53;97674.72;;;6.21;85.74
78932;BME280;68331;53.362;55.932;2023-10-08T08:07:19;97666.81;;;6.23;85.84
78932;BME280;68331;53.362;55.932;2023-10-08T08:09:48;97660.59;;;6.25;86.00
78932;BME280;68331;53.362;55.932;2023-10-08T08:12:18;97652.72;;;6.25;85.97
78932;BME280;68331;53.362;55.932;2023-10-08T08:14:45;97647.31;;;6.28;86.22
78932;BME280;68331;53.362;55.932;2023-10-08T08:17:12;97645.56;;;6.29;86.51
78932;BME280;68331;53.362;55.932;2023-10-08T08:19:42;97645.47;;;6.31;86.35
78932;BME280;68331;53.362;55.932;2023-10-08T08:22:19;97649.47;;;6.38;86.42
78932;BME280;68331;53.362;55.932;2023-10-08T08:24:53;97638.84;;;6.41;86.44
78932;BME280;68331;53.362;55.932;2023-10-08T08:27:21;97651.56;;;6.48;86.30
78932;BME280;68331;53.362;55.932;2023-10-08T08:29:53;97641.78;;;6.52;86.36
78932;BME280;68331;53.362;55.932;2023-10-08T08:32:22;97634.59;;;6.56;86.43
78932;BME280;68331;53.362;55.932;2023-10-08T08:34:49;97619.66;;;6.58;86.42
78932;BME280;68331;53.362;55.932;2023-10-08T08:37:19;97618.56;;;6.62;86.56
78932;BME280;68331;53.362;55.932;2023-10-08T08:39:51;97621.88;;;6.65;86.41
78932;BME280;68331;53.362;55.932;2023-10-08T08:42:22;97616.56;;;6.67;86.43
78932;BME280;68331;53.362;55.932;2023-10-08T08:44:54;97638.28;;;6.69;86.67
78932;BME280;68331;53.362;55.932;2023-10-08T08:47:22;97625.13;;;6.70;86.67
78932;BME280;68331;53.362;55.932;2023-10-08T08:49:50;97611.00;;;6.73;86.89
78932;BME280;68331;53.362;55.932;2023-10-08T08:52:21;97612.44;;;6.79;86.92
78932;BME280;68331;53.362;55.932;2023-10-08T08:54:48;97617.38;;;6.85;86.92
78932;BME280;68331;53.362;55.932;2023-10-08T08:57:14;97607.50;;;6.90;86.91
78932;BME280;68331;53.362;55.932;2023-10-08T08:59:46;97620.44;;;6.93;87.01
78932;BME280;68331;53.362;55.932;2023-10-08T09:02:16;97617.66;;;6.96;86.89
78932;BME280;68331;53.362;55.932;2023-10-08T09:04:44;97613.78;;;7.03;86.90
78932;BME280;68331;53.362;55.932;2023-10-08T09:07:12;97613.38;;;7.11;86.88
78932;BME280;68331;53.362;55.932;2023-10-08T09:09:38;97610.66;;;7.12;86.82
78932;BME280;68331;53.362;55.932;2023-10-08T09:12:06;97609.84;;;7.12;87.13
78932;BME280;68331;53.362;55.932;2023-10-08T09:14:36;97610.66;;;7.12;87.00
78932;BME280;68331;53.362;55.932;2023-10-08T09:17:04;97611.41;;;7.14;87.31
78932;BME280;68331;53.362;55.932;2023-10-08T09:19:38;97613.72;;;7.20;87.54
78932;BME280;68331;53.362;55.932;2023-10-08T09:22:09;97609.84;;;7.28;87.14
78932;BME280;68331;53.362;55.932;2023-10-08T09:24:41;97610.34;;;7.34;87.14
78932;BME280;68331;53.362;55.932;2023-10-08T09:27:09;97608.47;;;7.36;87.31
78932;BME280;68331;53.362;55.932;2023-10-08T09:29:46;97605.53;;;7.42;87.55
78932;BME280;68331;53.362;55.932;2023-10-08T09:32:13;97610.38;;;7.50;87.70
78932;BME280;68331;53.362;55.932;2023-10-08T09:34:40;97611.72;;;7.57;87.73
78932;BME280;68331;53.362;55.932;2023-10-08T09:37:06;97622.59;;;7.65;87.64
78932;BME280;68331;53.362;55.932;2023-10-08T09:39:34;97607.47;;;7.71;87.41
78932;BME280;68331;53.362;55.932;2023-10-08T09:42:02;97609.47;;;7.81;87.35
78932;BME280;68331;53.362;55.932;2023-10-08T09:44:38;97603.88;;;7.87;87.14
78932;BME280;68331;53.362;55.932;2023-10-08T09:47:09;97602.69;;;7.93;87.34
78932;BME280;68331;53.362;55.932;2023-10-08T09:49:39;97601.38;;;8.00;87.03
78932;BME280;68331;53.362;55.932;2023-10-08T09:52:10;97605.44;;;8.06;87.04
78932;BME280;68331;53.362;55.932;2023-10-08T09:54:43;97589.16;;;8.15;87.10
78932;BME280;68331;53.362;55.932;2023-10-08T09:57:11;97580.94;;;8.21;86.99
78932;BME280;68331;53.362;55.932;2023-10-08T09:59:37;97584.63;;;8.33;87.14
78932;BME280;68331;53.362;55.932;2023-10-08T10:02:10;97578.19;;;8.38;86.99
78932;BME280;68331;53.362;55.932;2023-10-08T10:04:42;97575.09;;;8.46;86.54
78932;BME280;68331;53.362;55.932;2023-10-08T10:07:11;97582.53;;;8.54;86.39
78932;BME280;68331;53.362;55.932;2023-10-08T10:09:40;97580.28;;;8.62;86.47
78932;BME280;68331;53.362;55.932;2023-10-08T10:12:10;97566.84;;;8.67;86.32
78932;BME280;68331;53.362;55.932;2023-10-08T10:14:47;97564.22;;;8.67;86.52
78932;BME280;68331;53.362;55.932;2023-10-08T10:17:15;97566.66;;;8.70;86.30
78932;BME280;68331;53.362;55.932;2023-10-08T10:19:53;97575.13;;;8.75;86.32
78932;BME280;68331;53.362;55.932;2023-10-08T10:22:33;97576.72;;;8.77;86.17
78932;BME280;68331;53.362;55.932;2023-10-08T10:25:02;97574.94;;;8.78;86.28
78932;BME280;68331;53.362;55.932;2023-10-08T10:30:21;97580.94;;;8.80;86.33
78932;BME280;68331;53.362;55.932;2023-10-08T10:32:52;97587.81;;;8.82;86.58
78932;BME280;68331;53.362;55.932;2023-10-08T10:35:19;97603.09;;;8.90;86.58
78932;BME280;68331;53.362;55.932;2023-10-08T10:37:46;97607.06;;;8.97;86.63
78932;BME280;68331;53.362;55.932;2023-10-08T10:40:20;97595.97;;;9.06;86.55
78932;BME280;68331;53.362;55.932;2023-10-08T10:43:08;97591.19;;;9.13;86.55
78932;BME280;68331;53.362;55.932;2023-10-08T10:45:42;97596.91;;;9.20;86.22
78932;BME280;68331;53.362;55.932;2023-10-08T10:48:10;97581.47;;;9.28;86.38
78932;BME280;68331;53.362;55.932;2023-10-08T10:50:40;97588.97;;;9.48;86.26
78932;BME280;68331;53.362;55.932;2023-10-08T10:53:26;97583.63;;;9.77;85.79
78932;BME280;68331;53.362;55.932;2023-10-08T10:55:53;97570.97;;;10.09;85.20
78932;BME280;68331;53.362;55.932;2023-10-08T10:58:31;97581.25;;;10.39;84.60
78932;BME280;68331;53.362;55.932;2023-10-08T11:01:04;97579.47;;;10.53;83.88
78932;BME280;68331;53.362;55.932;2023-10-08T11:06:52;97567.69;;;10.58;83.43
78932;BME280;68331;53.362;55.932;2023-10-08T11:09:23;97575.50;;;10.60;83.41
78932;BME280;68331;53.362;55.932;2023-10-08T11:12:02;97576.44;;;10.59;83.68
78932;BME280;68331;53.362;55.932;2023-10-08T11:14:40;97594.69;;;10.62;83.43
78932;BME280;68331;53.362;55.932;2023-10-08T11:17:12;97591.75;;;10.66;83.12
78932;BME280;68331;53.362;55.932;2023-10-08T11:19:42;97587.31;;;10.67;83.22
78932;BME280;68331;53.362;55.932;2023-10-08T11:22:15;97592.38;;;10.70;82.98
78932;BME280;68331;53.362;55.932;2023-10-08T11:24:49;97587.59;;;10.62;83.25
78932;BME280;68331;53.362;55.932;2023-10-08T11:27:20;97588.25;;;10.53;83.53
78932;BME280;68331;53.362;55.932;2023-10-08T11:29:59;97571.91;;;10.48;83.79
78932;BME280;68331;53.362;55.932;2023-10-08T11:32:27;97576.53;;;10.44;83.84
78932;BME280;68331;53.362;55.932;2023-10-08T11:34:57;97582.31;;;10.37;84.33
78932;BME280;68331;53.362;55.932;2023-10-08T11:37:30;97578.44;;;10.42;83.98
78932;BME280;68331;53.362;55.932;2023-10-08T11:40:01;97575.78;;;10.42;84.11
78932;BME280;68331;53.362;55.932;2023-10-08T11:42:39;97575.69;;;10.44;84.08
78932;BME280;68331;53.362;55.932;2023-10-08T11:45:06;97581.91;;;10.43;83.62
78932;BME280;68331;53.362;55.932;2023-10-08T11:47:56;97559.03;;;10.43;82.55
78932;BME280;68331;53.362;55.932;2023-10-08T11:50:26;97570.44;;;10.44;81.76
78932;BME280;68331;53.362;55.932;2023-10-08T11:53:01;97580.97;;;10.44;80.52
78932;BME280;68331;53.362;55.932;2023-10-08T11:55:33;97569.47;;;10.45;80.29
78932;BME280;68331;53.362;55.932;2023-10-08T11:58:05;97582.00;;;10.41;79.87
78932;BME280;68331;53.362;55.932;2023-10-08T12:00:42;97587.38;;;10.40;79.43
78932;BME280;68331;53.362;55.932;2023-10-08T12:03:12;97582.22;;;10.38;79.34
78932;BME280;68331;53.362;55.932;2023-10-08T12:05:39;97599.72;;;10.39;79.20
78932;BME280;68331;53.362;55.932;2023-10-08T12:08:15;97580.53;;;10.37;78.43
78932;BME280;68331;53.362;55.932;2023-10-08T12:10:45;97580.97;;;10.31;78.01
78932;BME280;68331;53.362;55.932;2023-10-08T12:13:12;97583.88;;;10.27;78.26
78932;BME280;68331;53.362;55.932;2023-10-08T12:15:38;97592.72;;;10.25;78.09
78932;BME280;68331;53.362;55.932;2023-10-08T12:18:05;97588.47;;;10.23;77.89
78932;BME280;68331;53.362;55.932;2023-10-08T12:20:35;97593.75;;;10.23;77.67
78932;BME280;68331;53.362;55.932;2023-10-08T12:23:06;97585.22;;;10.19;77.24
78932;BME280;68331;53.362;55.932;2023-10-08T12:25:37;97597.94;;;10.13;77.14
78932;BME280;68331;53.362;55.932;2023-10-08T12:28:03;97601.63;;;10.10;76.86
78932;BME280;68331;53.362;55.932;2023-10-08T12:30:33;97596.47;;;10.09;77.31
78932;BME280;68331;53.362;55.932;2023-10-08T12:33:07;97594.03;;;10.06;77.29
78932;BME280;68331;53.362;55.932;2023-10-08T12:35:42;97593.28;;;10.04;77.66
78932;BME280;68331;53.362;55.932;2023-10-08T12:38:10;97598.75;;;10.00;77.27
78932;BME280;68331;53.362;55.932;2023-10-08T12:40:36;97606.00;;;9.97;77.22
78932;BME280;68331;53.362;55.932;2023-10-08T12:43:35;97602.19;;;9.88;77.12
78932;BME280;68331;53.362;55.932;2023-10-08T12:46:04;97605.38;;;9.93;77.04
78932;BME280;68331;53.362;55.932;2023-10-08T12:48:37;97618.44;;;9.95;76.80
78932;BME280;68331;53.362;55.932;2023-10-08T12:51:08;97608.00;;;9.93;76.86
78932;BME280;68331;53.362;55.932;2023-10-08T12:53:36;97623.25;;;9.88;77.07
78932;BME280;68331;53.362;55.932;2023-10-08T12:56:07;97621.00;;;9.82;77.68
78932;BME280;68331;53.362;55.932;2023-10-08T12:58:42;97617.00;;;9.76;78.05
78932;BME280;68331;53.362;55.932;2023-10-08T13:01:13;97613.81;;;9.71;78.31
78932;BME280;68331;53.362;55.932;2023-10-08T13:03:40;97626.22;;;9.69;78.51
78932;BME280;68331;53.362;55.932;2023-10-08T13:06:09;97613.56;;;9.62;78.51
78932;BME280;68331;53.362;55.932;2023-10-08T13:08:41;97631.41;;;9.71;78.69
78932;BME280;68331;53.362;55.932;2023-10-08T13:11:06;97614.84;;;9.69;78.91
78932;BME280;68331;53.362;55.932;2023-10-08T13:13:33;97618.13;;;9.72;79.18
78932;BME280;68331;53.362;55.932;2023-10-08T13:16:00;97617.19;;;9.73;78.97
78932;BME280;68331;53.362;55.932;2023-10-08T13:18:34;97630.91;;;9.78;78.57
78932;BME280;68331;53.362;55.932;2023-10-08T13:21:05;97621.97;;;9.81;77.78
78932;BME280;68331;53.362;55.932;2023-10-08T13:23:32;97613.22;;;9.81;77.49
78932;BME280;68331;53.362;55.932;2023-10-08T13:26:02;97615.75;;;9.82;77.21
78932;BME280;68331;53.362;55.932;2023-10-08T13:28:33;97628.63;;;9.87;77.01
78932;BME280;68331;53.362;55.932;2023-10-08T13:31:04;97633.06;;;9.86;76.65